Terminal Aerodrome Forecast
Issued by NWS

Home | Current Version | Previous Version | Text Only | Print | Product List | Glossary On
Versions: 1 2 3 4 5 6 7 8 9 10 11 12 13 14 15 16
955
FTUS43 KJKL 271738
TAFSME
TAF
KSME 271738Z 2718/2818 VRB05KT P6SM VCTS SCT025 BKN050CB
     FM280300 VRB03KT 4SM BR VCTS BKN040CB
     FM280900 VRB03KT 3SM SHRA VCTS BKN030CB=

USA.gov is the U.S. government's official web portal to all federal, state and local government web resources and services.